sensor_id;sensor_type;location;lat;lon;timestamp;temperature;humidity
1329;DHT22;658;48.820;9.354;2023-12-20T00:01:33;23.10;36.30
1329;DHT22;658;48.820;9.354;2023-12-20T00:05:34;23.10;36.40
1329;DHT22;658;48.820;9.354;2023-12-20T00:09:35;23.10;36.30
1329;DHT22;658;48.820;9.354;2023-12-20T00:13:38;23.10;36.40
1329;DHT22;658;48.820;9.354;2023-12-20T00:17:39;23.10;36.40
1329;DHT22;658;48.820;9.354;2023-12-20T00:21:39;23.10;36.40
1329;DHT22;658;48.820;9.354;2023-12-20T00:25:40;23.10;36.30
1329;DHT22;658;48.820;9.354;2023-12-20T00:29:41;23.00;36.30
1329;DHT22;658;48.820;9.354;2023-12-20T00:33:43;23.00;36.30
1329;DHT22;658;48.820;9.354;2023-12-20T00:37:44;23.00;36.30
1329;DHT22;658;48.820;9.354;2023-12-20T00:41:44;23.00;36.30
1329;DHT22;658;48.820;9.354;2023-12-20T00:45:45;23.00;36.30
1329;DHT22;658;48.820;9.354;2023-12-20T00:49:48;23.00;36.30
1329;DHT22;658;48.820;9.354;2023-12-20T00:53:50;23.00;36.40
1329;DHT22;658;48.820;9.354;2023-12-20T00:57:57;23.00;36.40
1329;DHT22;658;48.820;9.354;2023-12-20T01:01:59;23.00;36.40
1329;DHT22;658;48.820;9.354;2023-12-20T01:06:00;22.90;36.30
1329;DHT22;658;48.820;9.354;2023-12-20T01:10:00;22.90;36.40
1329;DHT22;658;48.820;9.354;2023-12-20T01:14:01;22.90;36.40
1329;DHT22;658;48.820;9.354;2023-12-20T01:18:02;23.00;36.50
1329;DHT22;658;48.820;9.354;2023-12-20T01:22:03;22.90;36.50
1329;DHT22;658;48.820;9.354;2023-12-20T01:26:03;22.90;36.50
1329;DHT22;658;48.820;9.354;2023-12-20T01:30:07;22.90;36.50
1329;DHT22;658;48.820;9.354;2023-12-20T01:34:07;22.90;36.50
1329;DHT22;658;48.820;9.354;2023-12-20T01:38:09;22.90;36.50
1329;DHT22;658;48.820;9.354;2023-12-20T01:42:09;22.90;36.50
1329;DHT22;658;48.820;9.354;2023-12-20T01:46:10;22.90;36.60
1329;DHT22;658;48.820;9.354;2023-12-20T01:50:12;22.90;36.60
1329;DHT22;658;48.820;9.354;2023-12-20T01:54:13;22.80;36.60
1329;DHT22;658;48.820;9.354;2023-12-20T01:58:17;22.80;36.60
1329;DHT22;658;48.820;9.354;2023-12-20T02:02:18;22.80;36.70
1329;DHT22;658;48.820;9.354;2023-12-20T02:06:20;22.80;36.70
1329;DHT22;658;48.820;9.354;2023-12-20T02:10:22;22.80;36.70
1329;DHT22;658;48.820;9.354;2023-12-20T02:14:22;22.80;36.70
1329;DHT22;658;48.820;9.354;2023-12-20T02:18:23;22.80;36.80
1329;DHT22;658;48.820;9.354;2023-12-20T02:22:24;22.80;36.80
1329;DHT22;658;48.820;9.354;2023-12-20T02:26:24;22.80;36.90
1329;DHT22;658;48.820;9.354;2023-12-20T02:30:25;22.80;36.90
1329;DHT22;658;48.820;9.354;2023-12-20T02:34:25;22.70;36.90
1329;DHT22;658;48.820;9.354;2023-12-20T02:38:26;22.70;36.90
1329;DHT22;658;48.820;9.354;2023-12-20T02:42:27;22.70;36.90
1329;DHT22;658;48.820;9.354;2023-12-20T02:46:29;22.70;37.00
1329;DHT22;658;48.820;9.354;2023-12-20T02:50:30;22.70;37.00
1329;DHT22;658;48.820;9.354;2023-12-20T02:54:30;22.70;37.00
1329;DHT22;658;48.820;9.354;2023-12-20T02:58:31;22.70;37.00
1329;DHT22;658;48.820;9.354;2023-12-20T03:02:31;22.70;37.10
1329;DHT22;658;48.820;9.354;2023-12-20T03:06:32;22.60;37.00
1329;DHT22;658;48.820;9.354;2023-12-20T03:10:33;22.60;37.10
1329;DHT22;658;48.820;9.354;2023-12-20T03:14:36;22.60;37.10
1329;DHT22;658;48.820;9.354;2023-12-20T03:18:36;22.60;37.10
1329;DHT22;658;48.820;9.354;2023-12-20T03:22:37;22.60;37.10
1329;DHT22;658;48.820;9.354;2023-12-20T03:26:37;22.60;37.20
1329;DHT22;658;48.820;9.354;2023-12-20T03:30:38;22.60;37.30
1329;DHT22;658;48.820;9.354;2023-12-20T03:34:38;22.60;37.30
1329;DHT22;658;48.820;9.354;2023-12-20T03:38:39;22.60;37.30
1329;DHT22;658;48.820;9.354;2023-12-20T03:42:40;22.60;37.40
1329;DHT22;658;48.820;9.354;2023-12-20T03:46:41;22.50;37.30
1329;DHT22;658;48.820;9.354;2023-12-20T03:50:41;22.50;37.40
1329;DHT22;658;48.820;9.354;2023-12-20T03:54:42;22.60;37.50
1329;DHT22;658;48.820;9.354;2023-12-20T03:58:42;22.50;37.40
1329;DHT22;658;48.820;9.354;2023-12-20T04:02:43;22.60;37.60
1329;DHT22;658;48.820;9.354;2023-12-20T04:06:44;22.60;37.50
1329;DHT22;658;48.820;9.354;2023-12-20T04:10:45;22.60;37.60
1329;DHT22;658;48.820;9.354;2023-12-20T04:14:45;22.60;37.60
1329;DHT22;658;48.820;9.354;2023-12-20T04:18:46;22.60;37.60
1329;DHT22;658;48.820;9.354;2023-12-20T04:22:49;22.60;37.60
1329;DHT22;658;48.820;9.354;2023-12-20T04:26:49;22.60;37.50
1329;DHT22;658;48.820;9.354;2023-12-20T04:30:50;22.60;37.60
1329;DHT22;658;48.820;9.354;2023-12-20T04:34:50;22.60;37.60
1329;DHT22;658;48.820;9.354;2023-12-20T04:38:51;22.60;37.60
1329;DHT22;658;48.820;9.354;2023-12-20T04:42:52;22.60;37.60
1329;DHT22;658;48.820;9.354;2023-12-20T04:46:52;22.60;37.70
1329;DHT22;658;48.820;9.354;2023-12-20T04:50:53;22.70;37.80
1329;DHT22;658;48.820;9.354;2023-12-20T04:54:53;22.70;37.80
1329;DHT22;658;48.820;9.354;2023-12-20T04:58:54;22.70;37.80
1329;DHT22;658;48.820;9.354;2023-12-20T05:02:54;22.70;37.80
1329;DHT22;658;48.820;9.354;2023-12-20T05:06:55;22.70;37.80
1329;DHT22;658;48.820;9.354;2023-12-20T05:10:56;22.70;37.80
1329;DHT22;658;48.820;9.354;2023-12-20T05:14:58;22.70;37.80
1329;DHT22;658;48.820;9.354;2023-12-20T05:19:00;22.70;37.80
1329;DHT22;658;48.820;9.354;2023-12-20T05:23:06;22.70;37.70
1329;DHT22;658;48.820;9.354;2023-12-20T05:27:07;22.70;37.70
1329;DHT22;658;48.820;9.354;2023-12-20T05:31:07;22.70;37.80
1329;DHT22;658;48.820;9.354;2023-12-20T05:35:08;22.80;37.80
1329;DHT22;658;48.820;9.354;2023-12-20T05:39:09;22.80;37.80
1329;DHT22;658;48.820;9.354;2023-12-20T05:43:09;22.70;37.80
1329;DHT22;658;48.820;9.354;2023-12-20T05:47:10;22.80;37.80
1329;DHT22;658;48.820;9.354;2023-12-20T05:51:13;22.70;37.80
1329;DHT22;658;48.820;9.354;2023-12-20T05:55:14;22.70;37.80
1329;DHT22;658;48.820;9.354;2023-12-20T05:59:19;22.80;37.90
1329;DHT22;658;48.820;9.354;2023-12-20T06:03:20;22.80;38.00
1329;DHT22;658;48.820;9.354;2023-12-20T06:07:20;22.70;37.90
1329;DHT22;658;48.820;9.354;2023-12-20T06:11:21;22.70;38.00
1329;DHT22;658;48.820;9.354;2023-12-20T06:15:21;22.70;37.90
1329;DHT22;658;48.820;9.354;2023-12-20T06:19:22;22.80;38.90
1329;DHT22;658;48.820;9.354;2023-12-20T06:23:22;22.80;39.80
1329;DHT22;658;48.820;9.354;2023-12-20T06:27:23;22.70;39.50
1329;DHT22;658;48.820;9.354;2023-12-20T06:31:26;22.80;39.20
1329;DHT22;658;48.820;9.354;2023-12-20T06:35:26;22.80;39.20
1329;DHT22;658;48.820;9.354;2023-12-20T06:39:27;22.80;39.70
1329;DHT22;658;48.820;9.354;2023-12-20T06:43:28;22.70;39.00
1329;DHT22;658;48.820;9.354;2023-12-20T06:47:29;22.70;39.00
1329;DHT22;658;48.820;9.354;2023-12-20T06:51:30;22.80;38.90
1329;DHT22;658;48.820;9.354;2023-12-20T06:55:31;22.70;38.80
1329;DHT22;658;48.820;9.354;2023-12-20T06:59:31;22.80;39.00
1329;DHT22;658;48.820;9.354;2023-12-20T07:03:32;22.70;38.80
1329;DHT22;658;48.820;9.354;2023-12-20T07:07:32;22.80;38.90
1329;DHT22;658;48.820;9.354;2023-12-20T07:11:33;22.70;38.90
1329;DHT22;658;48.820;9.354;2023-12-20T07:15:38;22.80;38.90
1329;DHT22;658;48.820;9.354;2023-12-20T07:19:39;22.70;38.80
1329;DHT22;658;48.820;9.354;2023-12-20T07:23:42;22.70;38.80
1329;DHT22;658;48.820;9.354;2023-12-20T07:27:45;22.70;38.70
1329;DHT22;658;48.820;9.354;2023-12-20T07:31:46;22.70;38.70
1329;DHT22;658;48.820;9.354;2023-12-20T07:35:46;22.70;38.70
1329;DHT22;658;48.820;9.354;2023-12-20T07:39:47;22.70;39.50
1329;DHT22;658;48.820;9.354;2023-12-20T07:43:48;22.70;40.70
1329;DHT22;658;48.820;9.354;2023-12-20T07:47:48;22.60;41.60
1329;DHT22;658;48.820;9.354;2023-12-20T07:51:50;22.60;42.20
1329;DHT22;658;48.820;9.354;2023-12-20T07:55:53;22.60;42.90
1329;DHT22;658;48.820;9.354;2023-12-20T07:59:56;22.60;43.30
1329;DHT22;658;48.820;9.354;2023-12-20T08:03:59;22.60;43.40
1329;DHT22;658;48.820;9.354;2023-12-20T08:08:00;22.60;43.80
1329;DHT22;658;48.820;9.354;2023-12-20T08:12:00;22.60;43.90
1329;DHT22;658;48.820;9.354;2023-12-20T08:16:01;22.60;44.40
1329;DHT22;658;48.820;9.354;2023-12-20T08:20:05;22.50;44.40
1329;DHT22;658;48.820;9.354;2023-12-20T08:24:08;22.50;44.70
1329;DHT22;658;48.820;9.354;2023-12-20T08:28:08;22.50;44.80
1329;DHT22;658;48.820;9.354;2023-12-20T08:32:11;22.50;45.00
1329;DHT22;658;48.820;9.354;2023-12-20T08:36:12;22.50;45.00
1329;DHT22;658;48.820;9.354;2023-12-20T08:40:13;22.50;45.10
1329;DHT22;658;48.820;9.354;2023-12-20T08:44:14;22.50;45.30
1329;DHT22;658;48.820;9.354;2023-12-20T08:48:14;22.50;45.50
1329;DHT22;658;48.820;9.354;2023-12-20T08:52:17;22.50;45.80
1329;DHT22;658;48.820;9.354;2023-12-20T08:56:18;22.50;45.80
1329;DHT22;658;48.820;9.354;2023-12-20T09:00:19;22.50;45.70
1329;DHT22;658;48.820;9.354;2023-12-20T09:04:23;22.50;45.80
1329;DHT22;658;48.820;9.354;2023-12-20T09:08:24;22.50;46.20
1329;DHT22;658;48.820;9.354;2023-12-20T09:12:25;22.30;42.70
1329;DHT22;658;48.820;9.354;2023-12-20T09:16:28;22.20;41.50
1329;DHT22;658;48.820;9.354;2023-12-20T09:20:28;22.10;40.40
1329;DHT22;658;48.820;9.354;2023-12-20T09:24:30;22.10;39.50
1329;DHT22;658;48.820;9.354;2023-12-20T09:28:31;22.10;38.80
1329;DHT22;658;48.820;9.354;2023-12-20T09:32:36;22.10;38.50
1329;DHT22;658;48.820;9.354;2023-12-20T09:36:36;22.10;38.70
1329;DHT22;658;48.820;9.354;2023-12-20T09:40:41;22.20;37.80
1329;DHT22;658;48.820;9.354;2023-12-20T09:44:42;22.20;38.40
1329;DHT22;658;48.820;9.354;2023-12-20T09:48:45;22.30;38.90
1329;DHT22;658;48.820;9.354;2023-12-20T09:52:49;22.40;39.20
1329;DHT22;658;48.820;9.354;2023-12-20T09:56:51;22.50;39.10
1329;DHT22;658;48.820;9.354;2023-12-20T10:00:53;22.60;39.10
1329;DHT22;658;48.820;9.354;2023-12-20T10:04:54;22.80;39.00
1329;DHT22;658;48.820;9.354;2023-12-20T10:08:55;22.90;38.80
1329;DHT22;658;48.820;9.354;2023-12-20T10:13:09;23.00;38.80
1329;DHT22;658;48.820;9.354;2023-12-20T10:17:10;23.10;38.60
1329;DHT22;658;48.820;9.354;2023-12-20T10:21:11;23.20;38.40
1329;DHT22;658;48.820;9.354;2023-12-20T10:25:14;23.30;38.20
1329;DHT22;658;48.820;9.354;2023-12-20T10:29:15;23.40;38.00
1329;DHT22;658;48.820;9.354;2023-12-20T10:33:24;23.50;38.00
1329;DHT22;658;48.820;9.354;2023-12-20T10:37:25;23.50;37.90
1329;DHT22;658;48.820;9.354;2023-12-20T10:41:30;23.60;37.70
1329;DHT22;658;48.820;9.354;2023-12-20T10:45:32;23.70;37.70
1329;DHT22;658;48.820;9.354;2023-12-20T10:49:35;23.70;37.50
1329;DHT22;658;48.820;9.354;2023-12-20T10:53:36;23.90;37.40
1329;DHT22;658;48.820;9.354;2023-12-20T10:57:40;24.00;37.20
1329;DHT22;658;48.820;9.354;2023-12-20T11:01:42;24.10;37.00
1329;DHT22;658;48.820;9.354;2023-12-20T11:05:50;24.10;36.80
1329;DHT22;658;48.820;9.354;2023-12-20T11:10:00;24.30;36.60
1329;DHT22;658;48.820;9.354;2023-12-20T11:14:08;24.50;36.40
1329;DHT22;658;48.820;9.354;2023-12-20T11:18:11;24.60;36.10
1329;DHT22;658;48.820;9.354;2023-12-20T11:22:16;24.70;36.00
1329;DHT22;658;48.820;9.354;2023-12-20T11:26:23;24.80;35.70
1329;DHT22;658;48.820;9.354;2023-12-20T11:30:43;25.00;35.50
1329;DHT22;658;48.820;9.354;2023-12-20T11:34:46;25.00;35.40
1329;DHT22;658;48.820;9.354;2023-12-20T11:38:57;24.90;35.40
1329;DHT22;658;48.820;9.354;2023-12-20T11:43:04;24.80;35.50
1329;DHT22;658;48.820;9.354;2023-12-20T11:47:08;24.40;32.20
1329;DHT22;658;48.820;9.354;2023-12-20T11:51:12;24.00;35.20
1329;DHT22;658;48.820;9.354;2023-12-20T11:55:13;23.90;35.90
1329;DHT22;658;48.820;9.354;2023-12-20T11:59:14;23.90;36.20
1329;DHT22;658;48.820;9.354;2023-12-20T12:03:20;23.80;36.40
1329;DHT22;658;48.820;9.354;2023-12-20T12:07:24;23.90;36.60
1329;DHT22;658;48.820;9.354;2023-12-20T12:11:25;23.80;36.50
1329;DHT22;658;48.820;9.354;2023-12-20T12:15:26;23.80;36.50
1329;DHT22;658;48.820;9.354;2023-12-20T12:19:26;23.80;36.40
1329;DHT22;658;48.820;9.354;2023-12-20T12:23:27;23.80;36.50
1329;DHT22;658;48.820;9.354;2023-12-20T12:27:28;23.80;36.50
1329;DHT22;658;48.820;9.354;2023-12-20T12:31:28;23.80;36.50
1329;DHT22;658;48.820;9.354;2023-12-20T12:35:29;23.80;36.60
1329;DHT22;658;48.820;9.354;2023-12-20T12:39:30;23.80;36.50
1329;DHT22;658;48.820;9.354;2023-12-20T12:43:31;23.70;36.50
1329;DHT22;658;48.820;9.354;2023-12-20T12:47:31;23.70;36.50
1329;DHT22;658;48.820;9.354;2023-12-20T12:51:32;23.80;36.50
1329;DHT22;658;48.820;9.354;2023-12-20T12:55:34;24.00;36.30
1329;DHT22;658;48.820;9.354;2023-12-20T12:59:35;24.10;36.00
1329;DHT22;658;48.820;9.354;2023-12-20T13:03:36;24.20;35.80
1329;DHT22;658;48.820;9.354;2023-12-20T13:07:37;24.10;35.80
1329;DHT22;658;48.820;9.354;2023-12-20T13:11:38;24.10;35.90
1329;DHT22;658;48.820;9.354;2023-12-20T13:15:40;24.00;35.90
1329;DHT22;658;48.820;9.354;2023-12-20T13:19:41;24.00;36.00
1329;DHT22;658;48.820;9.354;2023-12-20T13:23:42;23.90;36.10
1329;DHT22;658;48.820;9.354;2023-12-20T13:27:43;23.90;36.10
1329;DHT22;658;48.820;9.354;2023-12-20T13:31:43;23.90;36.20
1329;DHT22;658;48.820;9.354;2023-12-20T13:35:44;23.90;36.20
1329;DHT22;658;48.820;9.354;2023-12-20T13:39:45;23.90;36.20
1329;DHT22;658;48.820;9.354;2023-12-20T13:43:46;23.80;36.10
1329;DHT22;658;48.820;9.354;2023-12-20T13:47:49;23.80;36.10
1329;DHT22;658;48.820;9.354;2023-12-20T13:51:50;23.80;36.10
1329;DHT22;658;48.820;9.354;2023-12-20T13:55:50;23.80;36.20
1329;DHT22;658;48.820;9.354;2023-12-20T13:59:53;23.70;36.70
1329;DHT22;658;48.820;9.354;2023-12-20T14:03:54;23.70;36.10
1329;DHT22;658;48.820;9.354;2023-12-20T14:07:55;23.60;36.20
1329;DHT22;658;48.820;9.354;2023-12-20T14:11:58;23.60;36.20
1329;DHT22;658;48.820;9.354;2023-12-20T14:15:58;23.50;36.20
1329;DHT22;658;48.820;9.354;2023-12-20T14:20:00;23.50;36.90
1329;DHT22;658;48.820;9.354;2023-12-20T14:24:01;23.50;36.40
1329;DHT22;658;48.820;9.354;2023-12-20T14:28:02;23.40;36.40
1329;DHT22;658;48.820;9.354;2023-12-20T14:32:03;23.40;36.40
1329;DHT22;658;48.820;9.354;2023-12-20T14:36:05;23.30;36.40
1329;DHT22;658;48.820;9.354;2023-12-20T14:40:09;23.30;36.30
1329;DHT22;658;48.820;9.354;2023-12-20T14:44:17;23.30;36.50
1329;DHT22;658;48.820;9.354;2023-12-20T14:48:18;23.30;36.50
1329;DHT22;658;48.820;9.354;2023-12-20T14:52:18;23.20;36.50
1329;DHT22;658;48.820;9.354;2023-12-20T14:56:19;23.20;36.50
1329;DHT22;658;48.820;9.354;2023-12-20T15:00:20;23.20;36.50
1329;DHT22;658;48.820;9.354;2023-12-20T15:04:21;23.20;36.60
1329;DHT22;658;48.820;9.354;2023-12-20T15:08:28;23.10;36.60
1329;DHT22;658;48.820;9.354;2023-12-20T15:12:29;23.10;36.60
1329;DHT22;658;48.820;9.354;2023-12-20T15:16:30;23.10;36.60
1329;DHT22;658;48.820;9.354;2023-12-20T15:20:31;23.00;36.60
1329;DHT22;658;48.820;9.354;2023-12-20T15:24:36;23.00;36.70
1329;DHT22;658;48.820;9.354;2023-12-20T15:28:42;23.00;36.70
1329;DHT22;658;48.820;9.354;2023-12-20T15:32:43;23.00;36.80
1329;DHT22;658;48.820;9.354;2023-12-20T15:36:44;22.90;36.70
1329;DHT22;658;48.820;9.354;2023-12-20T15:40:49;22.90;36.80
1329;DHT22;658;48.820;9.354;2023-12-20T15:44:50;22.90;36.90
1329;DHT22;658;48.820;9.354;2023-12-20T15:48:50;22.90;36.90
1329;DHT22;658;48.820;9.354;2023-12-20T15:52:52;22.80;36.90
1329;DHT22;658;48.820;9.354;2023-12-20T15:56:53;22.80;36.90
1329;DHT22;658;48.820;9.354;2023-12-20T16:00:53;22.80;37.00
1329;DHT22;658;48.820;9.354;2023-12-20T16:04:54;22.80;37.00
1329;DHT22;658;48.820;9.354;2023-12-20T16:08:55;22.70;37.00
1329;DHT22;658;48.820;9.354;2023-12-20T16:12:56;22.70;37.30
1329;DHT22;658;48.820;9.354;2023-12-20T16:16:57;22.70;37.00
1329;DHT22;658;48.820;9.354;2023-12-20T16:21:00;22.70;37.10
1329;DHT22;658;48.820;9.354;2023-12-20T16:25:01;22.70;37.20
1329;DHT22;658;48.820;9.354;2023-12-20T16:29:02;22.70;37.40
1329;DHT22;658;48.820;9.354;2023-12-20T16:33:03;22.70;37.40
1329;DHT22;658;48.820;9.354;2023-12-20T16:37:03;22.70;37.50
1329;DHT22;658;48.820;9.354;2023-12-20T16:41:06;22.80;37.60
1329;DHT22;658;48.820;9.354;2023-12-20T16:45:07;22.70;37.60
1329;DHT22;658;48.820;9.354;2023-12-20T16:49:09;22.70;37.60
1329;DHT22;658;48.820;9.354;2023-12-20T16:53:11;22.70;37.60
1329;DHT22;658;48.820;9.354;2023-12-20T16:57:11;22.80;37.70
1329;DHT22;658;48.820;9.354;2023-12-20T17:01:12;22.80;37.60
1329;DHT22;658;48.820;9.354;2023-12-20T17:05:18;22.80;37.80
1329;DHT22;658;48.820;9.354;2023-12-20T17:09:18;22.80;37.70
1329;DHT22;658;48.820;9.354;2023-12-20T17:13:19;22.90;37.90
1329;DHT22;658;48.820;9.354;2023-12-20T17:17:19;22.90;37.90
1329;DHT22;658;48.820;9.354;2023-12-20T17:21:20;22.90;37.80
1329;DHT22;658;48.820;9.354;2023-12-20T17:25:21;22.90;37.80
1329;DHT22;658;48.820;9.354;2023-12-20T17:29:23;22.90;37.70
1329;DHT22;658;48.820;9.354;2023-12-20T17:33:23;22.90;37.70
1329;DHT22;658;48.820;9.354;2023-12-20T17:37:24;22.90;37.70
1329;DHT22;658;48.820;9.354;2023-12-20T17:41:25;22.90;37.70
1329;DHT22;658;48.820;9.354;2023-12-20T17:45:25;22.90;37.70
1329;DHT22;658;48.820;9.354;2023-12-20T17:49:26;22.80;37.60
1329;DHT22;658;48.820;9.354;2023-12-20T17:53:31;22.90;37.60
1329;DHT22;658;48.820;9.354;2023-12-20T17:57:32;22.80;37.50
1329;DHT22;658;48.820;9.354;2023-12-20T18:01:32;22.80;37.50
1329;DHT22;658;48.820;9.354;2023-12-20T18:05:33;22.80;37.40
1329;DHT22;658;48.820;9.354;2023-12-20T18:09:34;22.80;37.50
1329;DHT22;658;48.820;9.354;2023-12-20T18:13:36;22.80;37.40
1329;DHT22;658;48.820;9.354;2023-12-20T18:17:37;22.80;37.60
1329;DHT22;658;48.820;9.354;2023-12-20T18:21:38;22.80;37.60
1329;DHT22;658;48.820;9.354;2023-12-20T18:25:38;22.80;37.50
1329;DHT22;658;48.820;9.354;2023-12-20T18:29:39;22.80;37.60
1329;DHT22;658;48.820;9.354;2023-12-20T18:33:40;22.80;37.60
1329;DHT22;658;48.820;9.354;2023-12-20T18:37:40;22.90;37.70
1329;DHT22;658;48.820;9.354;2023-12-20T18:41:44;22.90;37.60
1329;DHT22;658;48.820;9.354;2023-12-20T18:45:48;22.90;37.70
1329;DHT22;658;48.820;9.354;2023-12-20T18:49:49;22.90;37.70
1329;DHT22;658;48.820;9.354;2023-12-20T18:53:52;22.90;37.60
1329;DHT22;658;48.820;9.354;2023-12-20T18:57:54;23.00;37.80
1329;DHT22;658;48.820;9.354;2023-12-20T19:01:57;23.00;37.90
1329;DHT22;658;48.820;9.354;2023-12-20T19:05:58;23.00;37.90
1329;DHT22;658;48.820;9.354;2023-12-20T19:10:01;23.00;37.90
1329;DHT22;658;48.820;9.354;2023-12-20T19:14:02;23.00;38.00
1329;DHT22;658;48.820;9.354;2023-12-20T19:18:03;23.00;38.10
1329;DHT22;658;48.820;9.354;2023-12-20T19:22:03;23.00;38.20
1329;DHT22;658;48.820;9.354;2023-12-20T19:26:04;23.00;38.00
1329;DHT22;658;48.820;9.354;2023-12-20T19:30:05;23.10;38.20
1329;DHT22;658;48.820;9.354;2023-12-20T19:34:06;23.10;38.20
1329;DHT22;658;48.820;9.354;2023-12-20T19:38:07;23.10;38.10
1329;DHT22;658;48.820;9.354;2023-12-20T19:42:07;23.10;38.10
1329;DHT22;658;48.820;9.354;2023-12-20T19:46:08;23.10;38.10
1329;DHT22;658;48.820;9.354;2023-12-20T19:50:10;23.10;38.00
1329;DHT22;658;48.820;9.354;2023-12-20T19:54:11;23.10;38.10
1329;DHT22;658;48.820;9.354;2023-12-20T19:58:11;23.10;38.00
1329;DHT22;658;48.820;9.354;2023-12-20T20:02:12;23.10;38.00
1329;DHT22;658;48.820;9.354;2023-12-20T20:06:13;23.10;38.00
1329;DHT22;658;48.820;9.354;2023-12-20T20:10:13;23.20;38.00
1329;DHT22;658;48.820;9.354;2023-12-20T20:14:14;23.20;38.00
1329;DHT22;658;48.820;9.354;2023-12-20T20:18:15;23.20;38.00
1329;DHT22;658;48.820;9.354;2023-12-20T20:22:16;23.20;37.90
1329;DHT22;658;48.820;9.354;2023-12-20T20:26:17;23.20;37.90
1329;DHT22;658;48.820;9.354;2023-12-20T20:30:18;23.20;37.90
1329;DHT22;658;48.820;9.354;2023-12-20T20:34:18;23.20;37.90
1329;DHT22;658;48.820;9.354;2023-12-20T20:38:21;23.20;37.90
1329;DHT22;658;48.820;9.354;2023-12-20T20:42:23;23.20;37.90
1329;DHT22;658;48.820;9.354;2023-12-20T20:46:26;23.20;37.90
1329;DHT22;658;48.820;9.354;2023-12-20T20:50:29;23.20;37.80
1329;DHT22;658;48.820;9.354;2023-12-20T20:54:29;23.20;37.90
1329;DHT22;658;48.820;9.354;2023-12-20T20:58:35;23.20;37.80
1329;DHT22;658;48.820;9.354;2023-12-20T21:02:36;23.20;37.90
1329;DHT22;658;48.820;9.354;2023-12-20T21:06:36;23.20;37.90
1329;DHT22;658;48.820;9.354;2023-12-20T21:10:37;23.20;37.90
1329;DHT22;658;48.820;9.354;2023-12-20T21:14:38;23.20;37.90
1329;DHT22;658;48.820;9.354;2023-12-20T21:18:38;23.20;37.90
1329;DHT22;658;48.820;9.354;2023-12-20T21:22:40;23.20;37.90
1329;DHT22;658;48.820;9.354;2023-12-20T21:26:41;23.20;37.80
1329;DHT22;658;48.820;9.354;2023-12-20T21:30:42;23.20;37.80
1329;DHT22;658;48.820;9.354;2023-12-20T21:34:43;23.10;37.80
1329;DHT22;658;48.820;9.354;2023-12-20T21:38:44;23.10;37.70
1329;DHT22;658;48.820;9.354;2023-12-20T21:42:44;23.00;37.70
1329;DHT22;658;48.820;9.354;2023-12-20T21:46:47;23.00;37.70
1329;DHT22;658;48.820;9.354;2023-12-20T21:50:48;23.00;37.70
1329;DHT22;658;48.820;9.354;2023-12-20T21:54:49;22.90;37.70
1329;DHT22;658;48.820;9.354;2023-12-20T21:58:52;22.90;37.70
1329;DHT22;658;48.820;9.354;2023-12-20T22:02:52;22.90;37.60
1329;DHT22;658;48.820;9.354;2023-12-20T22:06:53;22.80;37.60
1329;DHT22;658;48.820;9.354;2023-12-20T22:10:53;22.80;37.70
1329;DHT22;658;48.820;9.354;2023-12-20T22:14:54;22.80;37.60
1329;DHT22;658;48.820;9.354;2023-12-20T22:18:59;22.70;37.70
1329;DHT22;658;48.820;9.354;2023-12-20T22:23:01;22.70;37.80
1329;DHT22;658;48.820;9.354;2023-12-20T22:27:03;22.70;37.90
1329;DHT22;658;48.820;9.354;2023-12-20T22:31:04;22.60;37.80
1329;DHT22;658;48.820;9.354;2023-12-20T22:35:06;22.50;37.90
1329;DHT22;658;48.820;9.354;2023-12-20T22:39:07;22.60;38.60
1329;DHT22;658;48.820;9.354;2023-12-20T22:43:07;22.50;37.90
1329;DHT22;658;48.820;9.354;2023-12-20T22:47:08;22.50;38.00
1329;DHT22;658;48.820;9.354;2023-12-20T22:51:11;22.40;37.90
1329;DHT22;658;48.820;9.354;2023-12-20T22:55:11;22.50;38.10
1329;DHT22;658;48.820;9.354;2023-12-20T22:59:12;22.50;38.10
1329;DHT22;658;48.820;9.354;2023-12-20T23:03:14;22.40;38.00
1329;DHT22;658;48.820;9.354;2023-12-20T23:07:15;22.40;38.10
1329;DHT22;658;48.820;9.354;2023-12-20T23:11:15;22.40;38.20
1329;DHT22;658;48.820;9.354;2023-12-20T23:15:16;22.40;38.20
1329;DHT22;658;48.820;9.354;2023-12-20T23:19:17;22.40;38.30
1329;DHT22;658;48.820;9.354;2023-12-20T23:23:17;22.40;38.10
1329;DHT22;658;48.820;9.354;2023-12-20T23:27:18;22.40;38.20
1329;DHT22;658;48.820;9.354;2023-12-20T23:31:23;22.40;38.20
1329;DHT22;658;48.820;9.354;2023-12-20T23:35:25;22.50;38.30
1329;DHT22;658;48.820;9.354;2023-12-20T23:39:28;22.50;38.30
1329;DHT22;658;48.820;9.354;2023-12-20T23:43:28;22.50;38.30
1329;DHT22;658;48.820;9.354;2023-12-20T23:47:29;22.50;38.30
1329;DHT22;658;48.820;9.354;2023-12-20T23:51:30;22.50;38.30
1329;DHT22;658;48.820;9.354;2023-12-20T23:55:30;22.60;38.50
1329;DHT22;658;48.820;9.354;2023-12-20T23:59:31;22.60;38.40
